createdAt,value
2017-04-20T00:00:23.638Z,0.79
2017-04-20T00:01:23.976Z,0.84
2017-04-20T00:02:23.608Z,0.91
2017-04-20T00:03:23.600Z,0.84
2017-04-20T00:04:23.277Z,0.83
2017-04-20T00:05:23.564Z,0.83
2017-04-20T00:06:23.854Z,0.73
2017-04-20T00:07:23.534Z,0.72
2017-04-20T00:08:23.522Z,0.79
2017-04-20T00:09:23.509Z,0.79
2017-04-20T00:10:23.490Z,0.69
2017-04-20T00:11:23.729Z,0.69
2017-04-20T00:12:23.463Z,0.68
2017-04-20T00:13:23.448Z,0.72
2017-04-20T00:14:23.447Z,0.73
2017-04-20T00:15:23.416Z,0.7
2017-04-20T00:16:23.098Z,0.69
2017-04-20T00:17:23.385Z,0.62
2017-04-20T00:18:23.373Z,0.62
2017-04-20T00:19:23.357Z,0.66
2017-04-20T00:20:23.342Z,0.61
2017-04-20T00:21:23.417Z,0.6
2017-04-20T00:22:23.315Z,0.5
2017-04-20T00:23:23.299Z,0.61
2017-04-20T00:24:23.282Z,0.5
2017-04-20T00:25:23.268Z,0.53
2017-04-20T00:26:23.254Z,0.51
2017-04-20T00:27:23.238Z,0.51
2017-04-20T00:28:23.233Z,0.47
2017-04-20T00:29:22.908Z,0.47
2017-04-20T00:30:23.197Z,0.49
2017-04-20T00:31:23.175Z,0.46
2017-04-20T00:32:23.169Z,0.39
2017-04-20T00:33:23.152Z,0.44
2017-04-20T00:34:23.134Z,0.35
2017-04-20T00:35:23.118Z,0.39
2017-04-20T00:36:23.106Z,0.39
2017-04-20T00:37:23.089Z,0.36
2017-04-20T00:38:23.070Z,0.41
2017-04-20T00:39:23.143Z,0.29
2017-04-20T00:40:23.043Z,0.35
2017-04-20T00:41:23.028Z,0.36
2017-04-20T00:42:23.013Z,0.35
2017-04-20T00:43:22.997Z,0.33
2017-04-20T00:44:22.986Z,0.26
2017-04-20T00:45:22.964Z,0.31
2017-04-20T00:46:22.950Z,0.24
2017-04-20T00:47:22.935Z,0.32
2017-04-20T00:48:22.929Z,0.23
2017-04-20T00:49:22.911Z,0.23
2017-04-20T00:50:22.891Z,0.15
2017-04-20T00:51:22.877Z,0.23
2017-04-20T00:52:22.861Z,0.2
2017-04-20T00:53:22.847Z,0.24
2017-04-20T00:54:22.828Z,0.17
2017-04-20T00:55:22.819Z,0.15
2017-04-20T00:56:22.801Z,0.18
2017-04-20T00:57:22.933Z,0.13
2017-04-20T00:58:22.771Z,0.18
2017-04-20T00:59:22.757Z,0.1
2017-04-20T01:00:22.738Z,0.08
2017-04-20T01:01:22.724Z,0.17
2017-04-20T01:02:22.709Z,0.15
2017-04-20T01:03:22.692Z,0.07
2017-04-20T01:04:22.677Z,0.08
2017-04-20T01:05:22.661Z,0.11
2017-04-20T01:06:22.648Z,0.15
2017-04-20T01:07:22.636Z,0.14
2017-04-20T01:08:22.614Z,0.11
2017-04-20T01:09:22.603Z,0.14
2017-04-20T01:10:22.587Z,0.13
2017-04-20T01:11:22.570Z,0.07
2017-04-20T01:12:22.554Z,0.03
2017-04-20T01:13:22.539Z,-0.01
2017-04-20T01:14:22.527Z,-0.01
2017-04-20T01:15:22.510Z,0
2017-04-20T01:16:22.494Z,0.04
2017-04-20T01:17:22.480Z,-0.01
2017-04-20T01:18:22.465Z,-0.05
2017-04-20T01:19:22.447Z,-0.01
2017-04-20T01:20:22.432Z,-0.03
2017-04-20T01:21:22.417Z,-0.05
2017-04-20T01:22:22.401Z,-0.05
2017-04-20T01:23:22.396Z,-0.05
2017-04-20T01:24:22.434Z,-0.01
2017-04-20T01:25:22.355Z,0.03
2017-04-20T01:26:22.341Z,-0.01
2017-04-20T01:27:22.324Z,-0.15
2017-04-20T01:28:22.309Z,0.02
2017-04-20T01:29:22.293Z,-0.1
2017-04-20T01:30:22.279Z,-0.07
2017-04-20T01:31:22.264Z,-0.15
2017-04-20T01:32:22.549Z,-0.11
2017-04-20T01:33:22.231Z,-0.11
2017-04-20T01:34:22.216Z,-0.08
2017-04-20T01:35:22.205Z,-0.1
2017-04-20T01:36:22.187Z,-0.14
2017-04-20T01:37:22.419Z,-0.1
2017-04-20T01:38:22.154Z,-0.11
2017-04-20T01:39:22.144Z,-0.15
2017-04-20T01:40:22.123Z,-0.15
2017-04-20T01:41:22.110Z,-0.08
2017-04-20T01:42:22.403Z,-0.16
2017-04-20T01:43:22.076Z,-0.15
2017-04-20T01:44:22.063Z,-0.16
2017-04-20T01:45:22.046Z,-0.15
2017-04-20T01:46:22.031Z,-0.16
2017-04-20T01:47:22.270Z,-0.16
2017-04-20T01:48:22.003Z,-0.1
2017-04-20T01:49:21.685Z,-0.15
2017-04-20T01:50:21.972Z,-0.21
2017-04-20T01:51:21.956Z,-0.16
2017-04-20T01:52:21.985Z,-0.23
2017-04-20T01:53:21.940Z,-0.18
2017-04-20T01:54:21.910Z,-0.18
2017-04-20T01:55:21.891Z,-0.18
2017-04-20T01:56:21.877Z,-0.19
2017-04-20T01:57:22.114Z,-0.16
2017-04-20T01:58:21.848Z,-0.16
2017-04-20T01:59:21.529Z,-0.19
2017-04-20T02:00:21.885Z,-0.21
2017-04-20T02:01:21.801Z,-0.28
2017-04-20T02:02:22.032Z,-0.18
2017-04-20T02:03:21.769Z,-0.23
2017-04-20T02:04:21.755Z,-0.29
2017-04-20T02:05:21.737Z,-0.31
2017-04-20T02:06:21.722Z,-0.28
2017-04-20T02:07:21.962Z,-0.23
2017-04-20T02:08:21.388Z,-0.33
2017-04-20T02:09:21.680Z,-0.28
2017-04-20T02:10:21.659Z,-0.21
2017-04-20T02:11:21.649Z,-0.28
2017-04-20T02:12:21.929Z,-0.29
2017-04-20T02:13:21.612Z,-0.26
2017-04-20T02:14:21.600Z,-0.34
2017-04-20T02:15:21.585Z,-0.34
2017-04-20T02:16:21.569Z,-0.36
2017-04-20T02:17:21.803Z,-0.33
2017-04-20T02:18:21.537Z,-0.34
2017-04-20T02:19:21.521Z,-0.31
2017-04-20T02:20:21.504Z,-0.33
2017-04-20T02:21:21.491Z,-0.34
2017-04-20T02:22:21.773Z,-0.4
2017-04-20T02:23:21.460Z,-0.44
2017-04-20T02:24:21.443Z,-0.37
2017-04-20T02:25:21.124Z,-0.4
2017-04-20T02:26:21.252Z,-0.4
2017-04-20T02:27:21.745Z,-0.42
2017-04-20T02:28:21.387Z,-0.4
2017-04-20T02:29:21.366Z,-0.44
2017-04-20T02:30:21.348Z,-0.37
2017-04-20T02:31:21.332Z,-0.36
2017-04-20T02:32:21.567Z,-0.42
2017-04-20T02:33:21.303Z,-0.37
2017-04-20T02:34:21.289Z,-0.39
2017-04-20T02:35:21.420Z,-0.4
2017-04-20T02:36:21.255Z,-0.44
2017-04-20T02:37:21.553Z,-0.37
2017-04-20T02:38:21.222Z,-0.42
2017-04-20T02:39:21.214Z,-0.42
2017-04-20T02:40:20.889Z,-0.34
2017-04-20T02:41:21.177Z,-0.46
2017-04-20T02:42:21.468Z,-0.42
2017-04-20T02:43:21.151Z,-0.37
2017-04-20T02:44:21.129Z,-0.49
2017-04-20T02:45:21.114Z,-0.43
2017-04-20T02:46:21.099Z,-0.46
2017-04-20T02:47:21.082Z,-0.43
2017-04-20T02:48:21.068Z,-0.51
2017-04-20T02:49:21.054Z,-0.46
2017-04-20T02:50:21.035Z,-0.43
2017-04-20T02:51:21.020Z,-0.52
2017-04-20T02:52:21.003Z,-0.43
2017-04-20T02:53:20.687Z,-0.58
2017-04-20T02:54:20.673Z,-0.49
2017-04-20T02:55:20.954Z,-0.49
2017-04-20T02:56:20.939Z,-0.55
2017-04-20T02:57:20.926Z,-0.47
2017-04-20T02:58:20.919Z,-0.65
2017-04-20T02:59:20.900Z,-0.52
2017-04-20T03:00:20.876Z,-0.54
2017-04-20T03:01:21.031Z,-0.54
2017-04-20T03:02:20.848Z,-0.67
2017-04-20T03:03:20.836Z,-0.64
2017-04-20T03:04:20.511Z,-0.57
2017-04-20T03:05:20.806Z,-0.57
2017-04-20T03:06:20.781Z,-0.58
2017-04-20T03:07:20.767Z,-0.6
2017-04-20T03:08:20.754Z,-0.64
2017-04-20T03:09:20.432Z,-0.57
2017-04-20T03:10:20.895Z,-0.58
2017-04-20T03:11:20.710Z,-0.55
2017-04-20T03:12:20.690Z,-0.6
2017-04-20T03:13:20.672Z,-0.58
2017-04-20T03:14:20.660Z,-0.61
2017-04-20T03:15:20.644Z,-0.64
2017-04-20T03:16:20.623Z,-0.65
2017-04-20T03:17:20.610Z,-0.67
2017-04-20T03:18:20.595Z,-0.65
2017-04-20T03:19:20.579Z,-0.64
2017-04-20T03:20:20.596Z,-0.69
2017-04-20T03:21:20.549Z,-0.72
2017-04-20T03:22:20.529Z,-0.73
2017-04-20T03:23:20.517Z,-0.67
2017-04-20T03:24:20.501Z,-0.73
2017-04-20T03:25:20.686Z,-0.76
2017-04-20T03:26:20.466Z,-0.73
2017-04-20T03:27:20.456Z,-0.7
2017-04-20T03:28:20.441Z,-0.75
2017-04-20T03:29:20.424Z,-0.7
2017-04-20T03:30:20.403Z,-0.78
2017-04-20T03:31:20.389Z,-0.78
2017-04-20T03:32:20.372Z,-0.76
2017-04-20T03:33:20.053Z,-0.78
2017-04-20T03:34:20.339Z,-0.78
2017-04-20T03:35:20.324Z,-0.78
2017-04-20T03:36:20.339Z,-0.79
2017-04-20T03:37:20.294Z,-0.76
2017-04-20T03:38:20.580Z,-0.78
2017-04-20T03:39:20.267Z,-0.79
2017-04-20T03:40:20.274Z,-0.78
2017-04-20T03:41:20.229Z,-0.82
2017-04-20T03:42:20.210Z,-0.8
2017-04-20T03:43:20.447Z,-0.8
2017-04-20T03:44:20.407Z,-0.83
2017-04-20T03:45:20.167Z,-0.83
2017-04-20T03:46:19.846Z,-0.89
2017-04-20T03:47:20.134Z,-0.92
2017-04-20T03:48:20.371Z,-0.89
2017-04-20T03:49:20.105Z,-0.92
2017-04-20T03:50:20.084Z,-0.82
2017-04-20T03:51:20.070Z,-0.86
2017-04-20T03:52:20.053Z,-0.91
2017-04-20T03:53:20.294Z,-0.91
2017-04-20T03:54:20.022Z,-0.92
2017-04-20T03:55:20.007Z,-0.89
2017-04-20T03:56:19.686Z,-0.85
2017-04-20T03:57:19.671Z,-0.89
2017-04-20T03:58:20.212Z,-0.83
2017-04-20T03:59:19.944Z,-0.82
2017-04-20T04:00:19.926Z,-0.8
2017-04-20T04:01:20.171Z,-0.92
2017-04-20T04:02:19.896Z,-0.82
2017-04-20T04:03:20.129Z,-0.82
2017-04-20T04:04:19.886Z,-0.83
2017-04-20T04:05:19.853Z,-0.83
2017-04-20T04:06:19.830Z,-0.75
2017-04-20T04:07:19.814Z,-0.75
2017-04-20T04:08:20.149Z,-0.82
2017-04-20T04:09:19.784Z,-0.76
2017-04-20T04:10:19.768Z,-0.7
2017-04-20T04:11:19.751Z,-0.7
2017-04-20T04:12:19.734Z,-0.67
2017-04-20T04:13:19.976Z,-0.57
2017-04-20T04:14:19.704Z,-0.62
2017-04-20T04:15:19.692Z,-0.61
2017-04-20T04:16:19.672Z,-0.51
2017-04-20T04:17:19.654Z,-0.52
2017-04-20T04:18:20.178Z,-0.4
2017-04-20T04:19:19.630Z,-0.34
2017-04-20T04:20:19.609Z,-0.23
2017-04-20T04:21:19.289Z,-0.21
2017-04-20T04:22:19.580Z,-0.08
2017-04-20T04:23:19.912Z,0.02
2017-04-20T04:24:19.547Z,0.02
2017-04-20T04:25:19.253Z,0.13
2017-04-20T04:26:19.265Z,0.29
2017-04-20T04:27:19.502Z,0.44
2017-04-20T04:28:19.797Z,0.61
2017-04-20T04:29:19.471Z,0.88
2017-04-20T04:30:19.457Z,0.93
2017-04-20T04:31:19.476Z,1.11
2017-04-20T04:32:19.122Z,1.37
2017-04-20T04:33:19.665Z,1.47
2017-04-20T04:34:19.398Z,1.68
2017-04-20T04:35:19.567Z,1.83
2017-04-20T04:36:19.377Z,2.1
2017-04-20T04:37:19.356Z,2.43
2017-04-20T04:38:19.649Z,2.56
2017-04-20T04:39:19.331Z,2.93
2017-04-20T04:40:19.316Z,3.08
2017-04-20T04:41:19.303Z,3.45
2017-04-20T04:42:19.290Z,3.69
2017-04-20T04:43:19.529Z,3.93
2017-04-20T04:44:18.961Z,4.18
2017-04-20T04:45:18.951Z,4.42
2017-04-20T04:46:18.937Z,4.63
2017-04-20T04:47:19.238Z,4.7
2017-04-20T04:48:19.471Z,4.96
2017-04-20T04:49:19.208Z,5.22
2017-04-20T04:50:19.194Z,5.35
2017-04-20T04:51:19.186Z,5.58
2017-04-20T04:52:19.203Z,5.67
2017-04-20T04:53:19.515Z,5.86
2017-04-20T04:54:19.154Z,6.06
2017-04-20T04:55:19.144Z,6.34
2017-04-20T04:56:19.135Z,6.58
2017-04-20T04:57:18.823Z,6.71
2017-04-20T04:58:19.425Z,6.92
2017-04-20T04:59:19.109Z,6.99
2017-04-20T05:00:19.215Z,7.17
2017-04-20T05:01:19.090Z,7.28
2017-04-20T05:02:19.080Z,7.48
2017-04-20T05:03:19.071Z,7.58
2017-04-20T05:04:19.065Z,7.74
2017-04-20T05:05:19.055Z,7.9
2017-04-20T05:06:19.049Z,8.25
2017-04-20T05:07:19.044Z,8.48
2017-04-20T05:08:19.034Z,8.66
2017-04-20T05:09:19.122Z,8.95
2017-04-20T05:10:19.020Z,8.96
2017-04-20T05:11:19.015Z,9.01
2017-04-20T05:12:19.005Z,9.1
2017-04-20T05:13:19.003Z,9.15
2017-04-20T05:14:18.995Z,9.32
2017-04-20T05:15:18.989Z,9.46
2017-04-20T05:16:18.982Z,9.76
2017-04-20T05:17:18.976Z,10.04
2017-04-20T05:18:18.978Z,10.01
2017-04-20T05:19:18.967Z,10.01
2017-04-20T05:20:18.965Z,10.25
2017-04-20T05:21:18.954Z,10.3
2017-04-20T05:22:18.950Z,10.55
2017-04-20T05:23:18.947Z,10.81
2017-04-20T05:24:18.944Z,11.07
2017-04-20T05:25:18.941Z,11.19
2017-04-20T05:26:19.007Z,11.4
2017-04-20T05:27:18.931Z,11.42
2017-04-20T05:28:18.923Z,11.43
2017-04-20T05:29:18.919Z,11.62
2017-04-20T05:30:18.917Z,11.65
2017-04-20T05:31:18.912Z,11.96
2017-04-20T05:32:18.914Z,12.2
2017-04-20T05:33:18.904Z,12.47
2017-04-20T05:34:18.903Z,12.72
2017-04-20T05:35:18.904Z,12.87
2017-04-20T05:36:20.114Z,12.97
2017-04-20T05:38:18.587Z,13.19
2017-04-20T05:39:18.887Z,13.3
2017-04-20T05:40:18.891Z,13.42
2017-04-20T05:41:18.882Z,13.36
2017-04-20T05:42:18.883Z,13.42
2017-04-20T05:43:19.026Z,13.51
2017-04-20T05:44:18.877Z,13.7
2017-04-20T05:45:18.572Z,14.03
2017-04-20T05:46:18.570Z,14.24
2017-04-20T05:47:18.567Z,14.28
2017-04-20T05:48:18.568Z,14.21
2017-04-20T05:49:19.116Z,14.09
2017-04-20T05:50:18.562Z,13.84
2017-04-20T05:51:18.560Z,13.87
2017-04-20T05:52:18.866Z,13.99
2017-04-20T05:53:18.863Z,14.06
2017-04-20T05:54:19.108Z,14.17
2017-04-20T05:55:18.860Z,13.92
2017-04-20T05:56:18.859Z,13.77
2017-04-20T05:57:18.857Z,13.78
2017-04-20T05:58:18.855Z,13.87
2017-04-20T05:59:26.206Z,13.88
2017-04-20T06:00:19.090Z,13.71
2017-04-20T06:01:18.849Z,13.69
2017-04-20T06:02:18.848Z,13.38
2017-04-20T06:03:18.544Z,13.01
2017-04-20T06:04:19.096Z,12.65
2017-04-20T06:05:18.847Z,12.53
2017-04-20T06:06:18.843Z,12.56
2017-04-20T06:07:18.841Z,12.65
2017-04-20T06:08:18.840Z,12.42
2017-04-20T06:09:19.139Z,12.28
2017-04-20T06:10:18.840Z,12.28
2017-04-20T06:11:18.837Z,12.21
2017-04-20T06:12:18.839Z,12.45
2017-04-20T06:13:18.838Z,12.71
2017-04-20T06:14:19.088Z,12.86
2017-04-20T06:15:18.541Z,12.87
2017-04-20T06:16:18.838Z,12.72
2017-04-20T06:17:18.529Z,12.31
2017-04-20T06:18:18.832Z,12.01
2017-04-20T06:19:19.083Z,11.55
2017-04-20T06:20:18.836Z,11.29
2017-04-20T06:21:18.831Z,10.74
2017-04-20T06:22:18.829Z,10.47
2017-04-20T06:23:18.832Z,10.41
2017-04-20T06:24:19.174Z,10.6
2017-04-20T06:25:18.822Z,10.67
2017-04-20T06:26:18.823Z,10.73
2017-04-20T06:27:18.822Z,11.03
2017-04-20T06:28:18.820Z,11.09
2017-04-20T06:29:19.067Z,11.29
2017-04-20T06:30:18.513Z,11.46
2017-04-20T06:31:18.814Z,11.82
2017-04-20T06:32:18.814Z,11.98
2017-04-20T06:33:19.002Z,12.05
2017-04-20T06:34:19.063Z,12.16
2017-04-20T06:35:21.237Z,11.96
2017-04-20T06:36:18.807Z,11.88
2017-04-20T06:37:21.237Z,11.91
2017-04-20T06:38:18.813Z,11.99
2017-04-20T06:39:19.056Z,11.98
2017-04-20T06:40:18.805Z,12.05
2017-04-20T06:41:18.996Z,12.29
2017-04-20T06:42:18.501Z,12.45
2017-04-20T06:43:18.805Z,12.45
2017-04-20T06:44:19.056Z,12.62
2017-04-20T06:45:18.807Z,12.65
2017-04-20T06:46:18.808Z,12.6
2017-04-20T06:47:18.814Z,12.67
2017-04-20T06:48:18.806Z,12.78
2017-04-20T06:49:19.107Z,12.9
2017-04-20T06:50:18.809Z,13.03
2017-04-20T06:51:18.860Z,13.12
2017-04-20T06:52:18.815Z,13.14
2017-04-20T06:53:18.811Z,13.25
2017-04-20T06:54:19.113Z,13.23
2017-04-20T06:55:18.815Z,13.23
2017-04-20T06:56:18.846Z,13.25
2017-04-20T06:57:18.856Z,13.3
2017-04-20T06:58:18.820Z,13.39
2017-04-20T06:59:19.074Z,13.39
2017-04-20T07:00:18.824Z,13.55
2017-04-20T07:01:18.523Z,13.87
2017-04-20T07:02:18.828Z,14.28
2017-04-20T07:03:18.831Z,14.7
2017-04-20T07:04:19.134Z,15.2
2017-04-20T07:05:18.834Z,15.41
2017-04-20T07:06:18.837Z,15.59
2017-04-20T07:07:18.856Z,15.86
2017-04-20T07:08:18.842Z,16
2017-04-20T07:09:18.843Z,16.2
2017-04-20T07:10:18.850Z,16.45
2017-04-20T07:11:18.853Z,16.58
2017-04-20T07:12:18.859Z,16.73
2017-04-20T07:13:18.863Z,16.64
2017-04-20T07:14:19.122Z,16.53
2017-04-20T07:15:18.869Z,16.76
2017-04-20T07:16:18.874Z,17
2017-04-20T07:17:18.575Z,17.15
2017-04-20T07:18:18.882Z,17.16
2017-04-20T07:19:19.189Z,17.06
2017-04-20T07:20:18.893Z,17.25
2017-04-20T07:21:18.899Z,17.46
2017-04-20T07:22:18.904Z,17.54
2017-04-20T07:23:19.097Z,17.38
2017-04-20T07:24:19.232Z,17.18
2017-04-20T07:25:18.615Z,17.22
2017-04-20T07:26:18.923Z,17.41
2017-04-20T07:27:18.927Z,17.36
2017-04-20T07:28:18.952Z,16.97
2017-04-20T07:29:18.934Z,16.33
2017-04-20T07:30:18.948Z,15.57
2017-04-20T07:31:19.160Z,15.11
2017-04-20T07:32:18.954Z,14.89
2017-04-20T07:33:18.960Z,14.78
2017-04-20T07:34:19.214Z,14.89
2017-04-20T07:35:18.969Z,15.14
2017-04-20T07:36:18.975Z,15.39
2017-04-20T07:37:18.981Z,15.92
2017-04-20T07:38:18.983Z,16.09
2017-04-20T07:39:19.032Z,16.46
2017-04-20T07:40:18.997Z,16.5
2017-04-20T07:41:18.700Z,16.23
2017-04-20T07:42:18.708Z,16.07
2017-04-20T07:43:19.013Z,15.78
2017-04-20T07:44:19.270Z,15.71
2017-04-20T07:45:18.729Z,15.83
2017-04-20T07:46:19.034Z,15.75
2017-04-20T07:47:19.042Z,15.59
2017-04-20T07:48:19.050Z,15.23
2017-04-20T07:49:19.305Z,15.06
2017-04-20T07:50:19.063Z,15.07
2017-04-20T07:51:19.072Z,15.09
2017-04-20T07:52:18.776Z,15.21
2017-04-20T07:53:18.783Z,15.39
2017-04-20T07:54:19.390Z,15.5
2017-04-20T07:55:19.097Z,15.6
2017-04-20T07:56:19.108Z,15.56
2017-04-20T07:57:19.115Z,15.41
2017-04-20T07:58:19.124Z,15.31
2017-04-20T07:59:19.380Z,15.47
2017-04-20T08:00:19.137Z,15.6
2017-04-20T08:01:18.842Z,16.05
2017-04-20T08:02:19.156Z,16.27
2017-04-20T08:03:19.167Z,16.48
2017-04-20T08:04:19.469Z,16.52
2017-04-20T08:05:19.182Z,16.5
2017-04-20T08:06:19.185Z,16.3
2017-04-20T08:07:18.895Z,16
2017-04-20T08:08:19.200Z,15.8
2017-04-20T08:09:19.253Z,15.69
2017-04-20T08:10:19.213Z,15.34
2017-04-20T08:11:19.223Z,15.11
2017-04-20T08:12:18.922Z,14.94
2017-04-20T08:13:19.231Z,15.03
2017-04-20T08:14:19.185Z,14.92
2017-04-20T08:15:18.940Z,14.7
2017-04-20T08:16:19.253Z,14.43
2017-04-20T08:17:19.253Z,14.22
2017-04-20T08:18:19.261Z,14.03
2017-04-20T08:19:19.517Z,13.87
2017-04-20T08:20:19.273Z,14.04
2017-04-20T08:21:19.273Z,14.2
2017-04-20T08:22:19.283Z,14.27
2017-04-20T08:23:19.285Z,14.18
2017-04-20T08:24:19.534Z,14.04
2017-04-20T08:25:19.283Z,13.75
2017-04-20T08:26:19.292Z,13.64
2017-04-20T08:27:19.292Z,13.57
2017-04-20T08:28:18.992Z,13.54
2017-04-20T08:29:19.549Z,13.39
2017-04-20T08:30:19.446Z,13.08
2017-04-20T08:31:19.000Z,12.75
2017-04-20T08:32:19.318Z,12.46
2017-04-20T08:33:19.311Z,12.21
2017-04-20T08:34:19.010Z,12.02
2017-04-20T08:35:19.313Z,11.79
2017-04-20T08:36:19.008Z,11.55
2017-04-20T08:37:19.312Z,11.32
2017-04-20T08:38:19.311Z,11.21
2017-04-20T08:39:19.313Z,11.07
2017-04-20T08:40:19.004Z,10.91
2017-04-20T08:41:19.006Z,10.82
2017-04-20T08:42:19.004Z,10.73
2017-04-20T08:43:18.703Z,10.76
2017-04-20T08:44:18.998Z,10.68
2017-04-20T08:45:19.299Z,10.45
2017-04-20T08:46:19.001Z,10.3
2017-04-20T08:47:19.434Z,10.23
2017-04-20T08:48:18.980Z,10.25
2017-04-20T08:49:18.978Z,10.18
2017-04-20T08:50:18.977Z,10.17
2017-04-20T08:51:19.272Z,10.17
2017-04-20T08:52:19.270Z,10.32
2017-04-20T08:53:19.271Z,10.34
2017-04-20T08:54:19.258Z,10.38
2017-04-20T08:55:19.318Z,10.41
2017-04-20T08:56:19.247Z,10.34
2017-04-20T08:57:19.244Z,10.32
2017-04-20T08:58:18.945Z,10.15
2017-04-20T08:59:19.232Z,9.86
2017-04-20T09:00:19.527Z,9.78
2017-04-20T09:01:19.225Z,9.66
2017-04-20T09:02:18.911Z,9.61
2017-04-20T09:03:19.215Z,9.64
2017-04-20T09:04:18.902Z,9.58
2017-04-20T09:05:19.142Z,9.46
2017-04-20T09:06:18.889Z,9.46
2017-04-20T09:07:19.183Z,9.47
2017-04-20T09:08:19.202Z,9.46
2017-04-20T09:09:19.171Z,9.39
2017-04-20T09:10:19.413Z,9.31
2017-04-20T09:11:19.158Z,9.26
2017-04-20T09:12:19.154Z,9.15
2017-04-20T09:13:19.144Z,9.18
2017-04-20T09:14:18.838Z,9.18
2017-04-20T09:15:19.130Z,9.32
2017-04-20T09:16:18.822Z,9.43
2017-04-20T09:17:18.816Z,9.36
2017-04-20T09:18:18.807Z,9.4
2017-04-20T09:19:19.105Z,9.36
2017-04-20T09:20:19.465Z,9.39
2017-04-20T09:21:18.788Z,9.5
2017-04-20T09:22:18.782Z,9.5
2017-04-20T09:23:19.079Z,9.64
2017-04-20T09:24:19.072Z,9.56
2017-04-20T09:25:19.367Z,9.6
2017-04-20T09:26:19.068Z,9.58
2017-04-20T09:27:18.751Z,9.53
2017-04-20T09:28:19.193Z,9.48
2017-04-20T09:29:18.736Z,9.48
2017-04-20T09:30:19.381Z,9.47
2017-04-20T09:31:19.024Z,9.5
2017-04-20T09:32:18.719Z,9.54
2017-04-20T09:33:18.713Z,9.64
2017-04-20T09:34:19.009Z,9.75
2017-04-20T09:35:19.248Z,9.87
2017-04-20T09:36:18.386Z,9.9
2017-04-20T09:37:18.453Z,10.04
2017-04-20T09:38:18.675Z,10.02
2017-04-20T09:39:18.668Z,10.07
2017-04-20T09:40:19.219Z,10.08
2017-04-20T09:41:18.955Z,10.08
2017-04-20T09:42:18.947Z,10.12
2017-04-20T09:43:18.340Z,10.2
2017-04-20T09:44:18.938Z,10.34
2017-04-20T09:45:19.232Z,10.44
2017-04-20T09:46:18.921Z,10.52
2017-04-20T09:47:18.918Z,10.79
2017-04-20T09:48:18.907Z,10.89
2017-04-20T09:49:18.908Z,11.1
2017-04-20T09:50:18.942Z,11.19
2017-04-20T09:51:18.889Z,11.52
2017-04-20T09:52:18.882Z,11.47
2017-04-20T09:53:18.876Z,11.49
2017-04-20T09:54:18.882Z,11.51
2017-04-20T09:55:19.114Z,11.35
2017-04-20T09:56:18.857Z,11.39
2017-04-20T09:57:18.549Z,11.29
2017-04-20T09:58:18.844Z,11.22
2017-04-20T09:59:18.838Z,11.22
2017-04-20T10:00:19.084Z,11.04
2017-04-20T10:01:18.538Z,10.82
2017-04-20T10:02:19.096Z,10.68
2017-04-20T10:03:18.818Z,10.44
2017-04-20T10:04:18.810Z,10.32
2017-04-20T10:05:19.053Z,10.36
2017-04-20T10:06:18.802Z,10.25
2017-04-20T10:07:18.795Z,10.33
2017-04-20T10:08:18.787Z,10.45
2017-04-20T10:09:18.781Z,10.55
2017-04-20T10:10:18.789Z,10.71
2017-04-20T10:11:18.474Z,10.94
2017-04-20T10:12:18.765Z,11.11
2017-04-20T10:13:18.756Z,11.28
2017-04-20T10:14:18.754Z,11.27
2017-04-20T10:15:19.048Z,11.37
2017-04-20T10:16:18.741Z,11.55
2017-04-20T10:17:18.729Z,11.57
2017-04-20T10:18:18.727Z,11.64
2017-04-20T10:19:18.719Z,11.54
2017-04-20T10:20:18.963Z,11.25
2017-04-20T10:21:18.707Z,11.18
2017-04-20T10:22:18.706Z,11.06
2017-04-20T10:23:18.394Z,10.94
2017-04-20T10:24:18.689Z,10.89
2017-04-20T10:25:18.635Z,10.94
2017-04-20T10:26:18.373Z,11.03
2017-04-20T10:27:18.770Z,11.04
2017-04-20T10:28:18.662Z,11.09
2017-04-20T10:29:18.355Z,11.18
2017-04-20T10:30:18.600Z,11.19
2017-04-20T10:31:18.350Z,11.24
2017-04-20T10:32:18.037Z,11.27
2017-04-20T10:33:18.032Z,11.29
2017-04-20T10:34:18.324Z,11.19
2017-04-20T10:35:18.617Z,11.39
2017-04-20T10:36:18.614Z,11.67
2017-04-20T10:37:18.329Z,11.79
2017-04-20T10:38:18.299Z,12.12
2017-04-20T10:39:18.295Z,12.17
2017-04-20T10:40:18.840Z,12.17
2017-04-20T10:41:18.281Z,12.19
2017-04-20T10:42:18.277Z,12.1
2017-04-20T10:43:18.573Z,12.2
2017-04-20T10:44:18.574Z,12.16
2017-04-20T10:45:18.511Z,12.19
2017-04-20T10:46:18.256Z,12.16
2017-04-20T10:47:17.946Z,12.14
2017-04-20T10:48:18.546Z,12.17
2017-04-20T10:49:18.542Z,12.31
2017-04-20T10:50:18.885Z,12.49
2017-04-20T10:51:18.528Z,12.42
2017-04-20T10:52:18.617Z,12.31
2017-04-20T10:53:18.519Z,12.14
2017-04-20T10:54:18.208Z,12.12
2017-04-20T10:55:18.814Z,12.24
2017-04-20T10:56:18.199Z,12.16
2017-04-20T10:57:18.496Z,12.07
2017-04-20T10:58:18.490Z,12.01
2017-04-20T10:59:18.483Z,12.05
2017-04-20T11:00:18.779Z,12.16
2017-04-20T11:01:18.478Z,12.2
2017-04-20T11:02:18.471Z,12.14
2017-04-20T11:03:18.465Z,12.17
2017-04-20T11:04:18.459Z,12.1
2017-04-20T11:05:17.868Z,12.17
2017-04-20T11:06:18.454Z,12.01
2017-04-20T11:07:18.140Z,11.98
2017-04-20T11:08:18.137Z,11.86
2017-04-20T11:09:18.237Z,11.73
2017-04-20T11:10:18.125Z,11.52
2017-04-20T11:11:18.426Z,11.46
2017-04-20T11:12:18.119Z,11.51
2017-04-20T11:13:18.416Z,11.64
2017-04-20T11:14:18.104Z,11.67
2017-04-20T11:15:17.793Z,11.69
2017-04-20T11:16:18.094Z,11.72
2017-04-20T11:17:18.388Z,11.7
2017-04-20T11:18:18.077Z,11.88
2017-04-20T11:19:18.381Z,12.01
2017-04-20T11:20:18.380Z,12.14
2017-04-20T11:21:18.366Z,12.09
2017-04-20T11:22:18.055Z,11.96
2017-04-20T11:23:18.354Z,11.88
2017-04-20T11:24:18.054Z,11.85
2017-04-20T11:25:18.342Z,11.85
2017-04-20T11:26:18.032Z,11.86
2017-04-20T11:27:17.721Z,12.04
2017-04-20T11:28:18.020Z,11.95
2017-04-20T11:29:18.018Z,12.17
2017-04-20T11:30:18.313Z,12.12
2017-04-20T11:31:18.309Z,12.24
2017-04-20T11:32:17.997Z,12.27
2017-04-20T11:33:18.297Z,12.27
2017-04-20T11:34:18.294Z,12.39
2017-04-20T11:35:17.983Z,12.42
2017-04-20T11:36:18.276Z,12.56
2017-04-20T11:37:18.274Z,12.65
2017-04-20T11:38:17.966Z,12.68
2017-04-20T11:39:18.262Z,12.65
2017-04-20T11:40:18.258Z,12.62
2017-04-20T11:41:18.249Z,12.46
2017-04-20T11:42:17.943Z,12.45
2017-04-20T11:43:17.935Z,12.45
2017-04-20T11:44:18.264Z,12.47
2017-04-20T11:45:18.230Z,12.52
2017-04-20T11:46:18.574Z,12.64
2017-04-20T11:47:18.221Z,12.68
2017-04-20T11:48:18.215Z,12.72
2017-04-20T11:49:17.907Z,12.79
2017-04-20T11:50:18.202Z,12.72
2017-04-20T11:51:17.890Z,12.7
2017-04-20T11:52:18.191Z,12.53
2017-04-20T11:53:18.187Z,12.49
2017-04-20T11:54:17.874Z,12.46
2017-04-20T11:55:17.869Z,12.57
2017-04-20T11:56:18.115Z,12.54
2017-04-20T11:57:17.859Z,12.64
2017-04-20T11:58:17.853Z,12.52
2017-04-20T11:59:17.849Z,12.67
2017-04-20T12:00:17.849Z,12.7
2017-04-20T12:01:18.395Z,12.79
2017-04-20T12:02:17.838Z,12.87
2017-04-20T12:03:18.137Z,12.96
2017-04-20T12:04:18.125Z,12.93
2017-04-20T12:05:17.816Z,13.07
2017-04-20T12:06:18.415Z,13
2017-04-20T12:07:17.843Z,13.07
2017-04-20T12:08:17.802Z,13.03
2017-04-20T12:09:18.102Z,13.01
2017-04-20T12:10:18.093Z,12.93
2017-04-20T12:11:18.088Z,12.79
2017-04-20T12:12:18.084Z,12.62
2017-04-20T12:13:18.085Z,12.54
2017-04-20T12:14:17.774Z,12.34
2017-04-20T12:15:18.077Z,12.05
2017-04-20T12:16:18.059Z,11.99
2017-04-20T12:17:17.754Z,11.82
2017-04-20T12:18:17.751Z,11.72
2017-04-20T12:19:17.745Z,11.75
2017-04-20T12:20:18.039Z,11.7
2017-04-20T12:21:18.288Z,11.72
2017-04-20T12:22:18.033Z,11.83
2017-04-20T12:23:18.023Z,12.01
2017-04-20T12:24:18.227Z,12.19
2017-04-20T12:25:18.013Z,12.24
2017-04-20T12:26:18.258Z,12.39
2017-04-20T12:27:17.698Z,12.57
2017-04-20T12:28:17.995Z,12.62
2017-04-20T12:29:17.993Z,12.85
2017-04-20T12:30:17.983Z,12.82
2017-04-20T12:31:18.231Z,12.87
2017-04-20T12:32:18.188Z,12.83
2017-04-20T12:33:17.969Z,12.89
2017-04-20T12:34:17.964Z,13.07
2017-04-20T12:35:17.958Z,13.08
2017-04-20T12:36:18.251Z,13.28
2017-04-20T12:37:17.951Z,13.38
2017-04-20T12:38:17.941Z,13.49
2017-04-20T12:39:17.632Z,13.63
2017-04-20T12:40:17.835Z,13.75
2017-04-20T12:41:18.226Z,13.91
2017-04-20T12:42:17.921Z,13.88
2017-04-20T12:43:17.914Z,13.87
2017-04-20T12:44:17.606Z,13.88
2017-04-20T12:45:17.906Z,13.71
2017-04-20T12:46:18.150Z,13.82
2017-04-20T12:47:17.591Z,13.85
2017-04-20T12:48:17.588Z,13.88
2017-04-20T12:49:17.583Z,14
2017-04-20T12:50:17.883Z,14.09
2017-04-20T12:51:17.824Z,14.21
2017-04-20T12:52:17.871Z,14.32
2017-04-20T12:53:17.865Z,14.51
2017-04-20T12:54:17.560Z,14.58
2017-04-20T12:55:17.855Z,14.72
2017-04-20T12:56:17.901Z,14.69
2017-04-20T12:57:17.848Z,14.84
2017-04-20T12:58:17.541Z,14.91
2017-04-20T12:59:17.840Z,14.99
2017-04-20T13:00:17.837Z,15.03
2017-04-20T13:01:17.783Z,15.14